createdAt,value
2022-08-05T00:00:12.955Z,87.28
2022-08-05T00:02:43.896Z,87.29
2022-08-05T00:06:02.817Z,89.06
2022-08-05T00:08:05.365Z,90.28
2022-08-05T00:10:51.843Z,88.77
2022-08-05T00:13:19.802Z,88.37
2022-08-05T00:15:56.413Z,89.49
2022-08-05T00:18:25.051Z,90.63
2022-08-05T00:20:52.185Z,91.38
2022-08-05T00:23:31.064Z,91.01
2022-08-05T00:26:07.459Z,90.10
2022-08-05T00:28:35.094Z,88.74
2022-08-05T00:31:04.431Z,88.10
2022-08-05T00:34:53.477Z,87.73
2022-08-05T00:37:10.544Z,88.43
2022-08-05T00:39:13.336Z,88.15
2022-08-05T00:41:51.640Z,94.43
2022-08-05T00:44:30.937Z,99.77
2022-08-05T00:47:01.589Z,94.39
2022-08-05T00:49:32.830Z,92.63
2022-08-05T00:52:10.934Z,92.20
2022-08-05T00:54:38.776Z,91.80
2022-08-05T00:57:05.422Z,93.31
2022-08-05T00:59:34.686Z,91.74
2022-08-05T01:02:11.557Z,91.46
2022-08-05T01:04:38.208Z,90.94
2022-08-05T01:07:13.530Z,93.21
2022-08-05T01:09:41.799Z,94.88
2022-08-05T01:12:18.418Z,95.26
2022-08-05T01:14:52.021Z,96.33
2022-08-05T01:17:44.107Z,96.23
2022-08-05T01:20:13.822Z,96.13
2022-08-05T01:22:52.601Z,97.40
2022-08-05T01:25:53.360Z,96.99
2022-08-05T01:28:37.177Z,94.74
2022-08-05T01:31:53.758Z,95.42
2022-08-05T01:34:26.860Z,100.00
2022-08-05T01:37:02.778Z,100.00
2022-08-05T01:39:46.903Z,100.00
2022-08-05T01:42:17.228Z,100.00
2022-08-05T01:44:54.279Z,100.00
2022-08-05T01:47:24.371Z,100.00
2022-08-05T01:50:14.997Z,100.00
2022-08-05T01:52:50.078Z,100.00
2022-08-05T01:55:20.272Z,100.00
2022-08-05T01:58:12.869Z,99.79
2022-08-05T02:00:39.563Z,100.00
2022-08-05T02:03:34.191Z,100.00
2022-08-05T02:06:37.264Z,98.71
2022-08-05T02:08:57.829Z,98.12
2022-08-05T02:11:33.494Z,99.56
2022-08-05T02:14:27.602Z,100.00
2022-08-05T02:16:56.791Z,100.00
2022-08-05T02:19:28.109Z,100.00
2022-08-05T02:22:03.492Z,100.00
2022-08-05T02:24:37.938Z,100.00
2022-08-05T02:27:10.058Z,100.00
2022-08-05T02:29:59.810Z,100.00
2022-08-05T02:32:31.381Z,100.00
2022-08-05T02:35:13.424Z,100.00
2022-08-05T02:37:43.137Z,100.00
2022-08-05T02:40:17.115Z,100.00
2022-08-05T02:42:53.928Z,100.00
2022-08-05T02:45:52.596Z,100.00
2022-08-05T02:48:28.977Z,100.00
2022-08-05T02:50:59.983Z,100.00
2022-08-05T02:53:29.365Z,100.00
2022-08-05T02:56:09.418Z,100.00
2022-08-05T02:58:43.711Z,100.00
2022-08-05T03:01:15.836Z,100.00
2022-08-05T03:04:02.720Z,100.00
2022-08-05T03:06:55.503Z,100.00
2022-08-05T03:09:27.122Z,100.00
2022-08-05T03:12:05.730Z,100.00
2022-08-05T03:14:32.474Z,100.00
2022-08-05T03:17:00.068Z,100.00
2022-08-05T03:19:33.941Z,100.00
2022-08-05T03:22:01.360Z,100.00
2022-08-05T03:24:30.635Z,100.00
2022-08-05T03:26:59.911Z,100.00
2022-08-05T03:29:45.894Z,100.00
2022-08-05T03:32:15.427Z,100.00
2022-08-05T03:34:51.272Z,100.00
2022-08-05T03:37:19.509Z,100.00
2022-08-05T03:40:01.403Z,100.00
2022-08-05T03:42:32.162Z,100.00
2022-08-05T03:44:59.519Z,100.00
2022-08-05T03:47:30.541Z,100.00
2022-08-05T03:50:02.273Z,100.00
2022-08-05T03:54:59.971Z,100.00
2022-08-05T03:56:09.697Z,100.00
2022-08-05T03:58:17.785Z,100.00
2022-08-05T04:00:46.507Z,100.00
2022-08-05T04:03:28.554Z,100.00
2022-08-05T04:05:57.751Z,100.00
2022-08-05T04:08:34.869Z,100.00
2022-08-05T04:11:05.085Z,100.00
2022-08-05T04:13:50.389Z,100.00
2022-08-05T04:16:25.209Z,100.00
2022-08-05T04:19:00.162Z,100.00
2022-08-05T04:22:09.578Z,100.00
2022-08-05T04:24:19.189Z,100.00
2022-08-05T04:26:49.674Z,100.00
2022-08-05T04:29:16.937Z,100.00
2022-08-05T04:31:43.571Z,100.00
2022-08-05T04:34:31.573Z,100.00
2022-08-05T04:36:57.078Z,100.00
2022-08-05T04:39:23.769Z,100.00
2022-08-05T04:41:50.958Z,100.00
2022-08-05T04:44:21.203Z,100.00
2022-08-05T04:46:57.595Z,100.00
2022-08-05T04:49:38.584Z,100.00
2022-08-05T04:52:12.639Z,100.00
2022-08-05T04:54:39.278Z,100.00
2022-08-05T04:57:05.947Z,100.00
2022-08-05T04:59:40.594Z,100.00
2022-08-05T05:02:36.358Z,100.00
2022-08-05T05:05:01.865Z,100.00
2022-08-05T05:07:32.445Z,100.00
2022-08-05T05:10:02.311Z,100.00
2022-08-05T05:12:50.606Z,100.00
2022-08-05T05:15:57.927Z,100.00
2022-08-05T05:18:04.942Z,100.00
2022-08-05T05:20:32.791Z,100.00
2022-08-05T05:23:08.091Z,100.00
2022-08-05T05:26:01.184Z,100.00
2022-08-05T05:28:27.841Z,100.00
2022-08-05T05:30:56.071Z,100.00
2022-08-05T05:33:23.648Z,100.00
2022-08-05T05:35:50.555Z,100.00
2022-08-05T05:38:27.243Z,100.00
2022-08-05T05:40:56.110Z,100.00
2022-08-05T05:43:54.109Z,100.00
2022-08-05T05:46:17.371Z,100.00
2022-08-05T05:48:46.062Z,100.00
2022-08-05T05:51:22.241Z,100.00
2022-08-05T05:53:57.522Z,100.00
2022-08-05T05:56:33.370Z,100.00
2022-08-05T05:59:06.532Z,100.00
2022-08-05T06:01:38.061Z,100.00
2022-08-05T06:04:11.745Z,100.00
2022-08-05T06:06:47.617Z,100.00
2022-08-05T06:09:24.952Z,100.00
2022-08-05T06:12:01.321Z,100.00
2022-08-05T06:14:32.352Z,100.00
2022-08-05T06:17:02.207Z,100.00
2022-08-05T06:19:56.689Z,100.00
2022-08-05T06:22:28.632Z,100.00
2022-08-05T06:24:55.625Z,100.00
2022-08-05T06:28:11.136Z,100.00
2022-08-05T06:30:17.900Z,100.00
2022-08-05T06:32:48.226Z,100.00
2022-08-05T06:36:03.447Z,100.00
2022-08-05T06:38:08.332Z,100.00
2022-08-05T06:40:38.252Z,100.00
2022-08-05T06:43:58.092Z,100.00
2022-08-05T06:46:04.017Z,100.00
2022-08-05T06:48:52.920Z,100.00
2022-08-05T06:51:29.062Z,100.00
2022-08-05T06:54:02.363Z,100.00
2022-08-05T06:56:34.601Z,100.00
2022-08-05T06:59:03.321Z,100.00
2022-08-05T07:01:32.580Z,100.00
2022-08-05T07:04:03.012Z,100.00
2022-08-05T07:06:30.467Z,100.00
2022-08-05T07:08:59.555Z,100.00
2022-08-05T07:11:31.079Z,100.00
2022-08-05T07:14:28.730Z,100.00
2022-08-05T07:17:59.113Z,100.00
2022-08-05T07:22:34.331Z,93.21
2022-08-05T07:25:21.780Z,88.84
2022-08-05T07:27:58.421Z,83.89
2022-08-05T07:30:38.150Z,86.84
2022-08-05T07:33:09.428Z,85.08
2022-08-05T07:36:04.000Z,88.82
2022-08-05T07:38:32.284Z,89.36
2022-08-05T07:42:09.069Z,90.09
2022-08-05T07:44:00.284Z,88.22
2022-08-05T07:46:29.278Z,85.62
2022-08-05T07:49:01.878Z,84.33
2022-08-05T07:51:36.930Z,83.84
2022-08-05T07:54:05.982Z,82.39
2022-08-05T07:57:00.837Z,83.11
2022-08-05T07:59:31.090Z,85.46
2022-08-05T08:02:16.028Z,82.98
2022-08-05T08:04:46.355Z,79.11
2022-08-05T08:07:14.106Z,74.91
2022-08-05T08:09:42.193Z,75.31
2022-08-05T08:12:20.242Z,73.74
2022-08-05T08:14:55.861Z,69.72
2022-08-05T08:17:23.701Z,68.67
2022-08-05T08:20:44.657Z,66.31
2022-08-05T08:23:03.232Z,65.08
2022-08-05T08:26:00.870Z,63.07
2022-08-05T08:28:18.932Z,61.96
2022-08-05T08:31:04.374Z,59.83
2022-08-05T08:33:37.548Z,60.26
2022-08-05T08:38:56.163Z,61.05
2022-08-05T08:41:51.873Z,63.18
2022-08-05T08:45:23.562Z,68.96
2022-08-05T08:47:47.370Z,71.53
2022-08-05T08:50:31.261Z,66.71
2022-08-05T08:53:03.385Z,67.20
2022-08-05T08:56:04.313Z,62.45
2022-08-05T08:58:43.574Z,59.54
2022-08-05T09:01:16.251Z,58.66
2022-08-05T09:03:54.567Z,59.12
2022-08-05T09:06:28.225Z,59.61
2022-08-05T09:08:58.193Z,58.78
2022-08-05T09:11:51.697Z,59.87
2022-08-05T09:14:56.989Z,61.32
2022-08-05T09:17:41.790Z,64.68
2022-08-05T09:20:36.633Z,65.17
2022-08-05T09:23:19.730Z,66.73
2022-08-05T09:25:59.913Z,60.55
2022-08-05T09:28:31.935Z,60.13
2022-08-05T09:31:22.094Z,56.14
2022-08-05T09:34:05.646Z,51.96
2022-08-05T09:36:55.859Z,53.22
2022-08-05T09:39:41.362Z,52.00
2022-08-05T09:42:23.642Z,51.54
2022-08-05T09:44:56.135Z,50.54
2022-08-05T09:47:48.096Z,50.75
2022-08-05T09:50:18.052Z,51.50
2022-08-05T09:53:01.518Z,49.89
2022-08-05T09:55:56.143Z,48.70
2022-08-05T09:58:22.744Z,49.53
2022-08-05T10:00:57.305Z,48.74
2022-08-05T10:03:24.877Z,47.83
2022-08-05T10:06:15.419Z,47.67
2022-08-05T10:08:53.936Z,48.22
2022-08-05T10:11:22.929Z,47.81
2022-08-05T10:13:54.572Z,47.23
2022-08-05T10:16:41.721Z,48.29
2022-08-05T10:19:23.616Z,48.93
2022-08-05T10:22:08.986Z,47.90
2022-08-05T10:24:42.342Z,46.12
2022-08-05T10:27:14.866Z,45.37
2022-08-05T10:30:41.912Z,45.86
2022-08-05T10:32:54.069Z,44.56
2022-08-05T10:35:17.991Z,44.34
2022-08-05T10:37:46.815Z,44.58
2022-08-05T10:40:57.807Z,43.92
2022-08-05T10:43:45.798Z,44.41
2022-08-05T10:46:14.594Z,43.73
2022-08-05T10:48:57.012Z,43.47
2022-08-05T10:51:29.242Z,42.31
2022-08-05T10:54:00.949Z,42.88
2022-08-05T10:56:45.824Z,43.36
2022-08-05T11:00:02.127Z,43.78
2022-08-05T11:02:34.706Z,44.24
2022-08-05T11:04:59.425Z,44.11
2022-08-05T11:07:33.197Z,44.16
2022-08-05T11:10:23.015Z,44.28
2022-08-05T11:12:55.970Z,44.49
2022-08-05T11:15:23.974Z,44.12
2022-08-05T11:18:27.219Z,44.43
2022-08-05T11:20:57.166Z,44.00
2022-08-05T11:23:33.444Z,44.00
2022-08-05T11:26:32.517Z,43.01
2022-08-05T11:29:43.048Z,43.75
2022-08-05T11:32:30.024Z,43.83
2022-08-05T11:34:57.531Z,43.95
2022-08-05T11:38:29.336Z,42.32
2022-08-05T11:41:35.359Z,41.61
2022-08-05T11:44:53.379Z,41.49
2022-08-05T11:47:22.136Z,41.04
2022-08-05T11:50:08.476Z,41.08
2022-08-05T11:52:35.208Z,41.08
2022-08-05T11:55:07.362Z,40.25
2022-08-05T11:57:48.530Z,41.09
2022-08-05T12:00:31.346Z,40.82
2022-08-05T12:02:58.775Z,41.13
2022-08-05T12:05:32.367Z,41.49
2022-08-05T12:08:09.560Z,40.08
2022-08-05T12:10:45.352Z,39.79
2022-08-05T12:13:28.172Z,39.91
2022-08-05T12:16:14.974Z,39.65
2022-08-05T12:18:48.642Z,40.76
2022-08-05T12:21:22.752Z,40.84
2022-08-05T12:24:04.228Z,41.01
2022-08-05T12:26:40.894Z,40.89
2022-08-05T12:29:16.294Z,40.44
2022-08-05T12:31:53.083Z,41.04
2022-08-05T12:34:25.741Z,42.16
2022-08-05T12:36:53.617Z,42.06
2022-08-05T12:39:22.058Z,41.27
2022-08-05T12:41:50.624Z,40.99
2022-08-05T12:44:33.893Z,42.35
2022-08-05T12:47:02.206Z,44.31
2022-08-05T12:50:03.316Z,44.69
2022-08-05T12:52:38.606Z,47.23
2022-08-05T12:55:23.758Z,47.80
2022-08-05T12:58:49.716Z,47.67
2022-08-05T13:02:02.674Z,48.29
2022-08-05T13:03:41.389Z,48.75
2022-08-05T13:06:12.560Z,50.31
2022-08-05T13:08:40.004Z,51.70
2022-08-05T13:11:07.934Z,51.13
2022-08-05T13:14:04.929Z,50.84
2022-08-05T13:16:27.985Z,51.33
2022-08-05T13:18:59.458Z,50.67
2022-08-05T13:21:27.794Z,50.38
2022-08-05T13:24:06.232Z,50.24
2022-08-05T13:26:35.794Z,51.34
2022-08-05T13:29:02.717Z,52.35
2022-08-05T13:31:33.916Z,52.27
2022-08-05T13:34:24.964Z,52.47
2022-08-05T13:36:54.031Z,52.96
2022-08-05T13:39:24.757Z,53.06
2022-08-05T13:42:14.010Z,52.49
2022-08-05T13:44:45.495Z,53.48
2022-08-05T13:47:35.501Z,54.39
2022-08-05T13:50:04.451Z,54.84
2022-08-05T13:52:35.586Z,55.01
2022-08-05T13:55:07.271Z,54.87
2022-08-05T13:57:50.886Z,54.82
2022-08-05T14:00:27.205Z,54.57
2022-08-05T14:02:56.549Z,54.69
2022-08-05T14:05:48.518Z,55.06
2022-08-05T14:08:20.232Z,57.79
2022-08-05T14:10:48.939Z,59.00
2022-08-05T14:13:16.128Z,60.23
2022-08-05T14:16:04.465Z,60.78
2022-08-05T14:18:30.374Z,61.52
2022-08-05T14:20:57.083Z,60.56
2022-08-05T14:23:33.619Z,59.17
2022-08-05T14:26:38.641Z,59.35
2022-08-05T14:29:16.589Z,60.05
2022-08-05T14:32:02.950Z,61.31
2022-08-05T14:34:35.456Z,60.63
2022-08-05T14:37:04.109Z,59.72
2022-08-05T14:39:49.546Z,59.15
2022-08-05T14:42:19.540Z,57.92
2022-08-05T14:44:48.661Z,58.69
2022-08-05T14:47:15.443Z,58.84
2022-08-05T14:49:58.529Z,58.76
2022-08-05T14:52:51.735Z,59.64
2022-08-05T14:55:15.630Z,60.57
2022-08-05T14:57:56.255Z,61.42
2022-08-05T15:00:27.929Z,61.46
2022-08-05T15:02:55.418Z,62.48
2022-08-05T15:05:22.357Z,62.74
2022-08-05T15:08:05.341Z,63.65
2022-08-05T15:10:43.482Z,64.33
2022-08-05T15:13:12.934Z,64.73
2022-08-05T15:15:55.018Z,64.37
2022-08-05T15:18:23.276Z,62.44
2022-08-05T15:20:49.969Z,61.79
2022-08-05T15:23:18.163Z,61.69
2022-08-05T15:25:52.869Z,62.02
2022-08-05T15:28:26.971Z,62.22
2022-08-05T15:30:54.937Z,62.39
2022-08-05T15:33:56.574Z,62.07
2022-08-05T15:36:17.301Z,62.78
2022-08-05T15:38:50.962Z,63.80
2022-08-05T15:41:58.352Z,63.90
2022-08-05T15:44:24.643Z,63.99
2022-08-05T15:46:52.596Z,63.43
2022-08-05T15:49:27.288Z,62.96
2022-08-05T15:52:16.353Z,63.47
2022-08-05T15:54:53.369Z,64.34
2022-08-05T15:57:20.745Z,66.03
2022-08-05T15:59:47.400Z,66.49
2022-08-05T16:02:27.666Z,66.37
2022-08-05T16:04:55.481Z,66.65
2022-08-05T16:07:22.853Z,66.74
2022-08-05T16:09:49.738Z,67.07
2022-08-05T16:12:17.344Z,67.23
2022-08-05T16:14:46.865Z,70.05
2022-08-05T16:17:13.788Z,71.36
2022-08-05T16:20:04.959Z,73.89
2022-08-05T16:22:33.795Z,74.09
2022-08-05T16:25:08.182Z,75.71
2022-08-05T16:28:00.093Z,77.36
2022-08-05T16:30:26.664Z,84.72
2022-08-05T16:32:55.695Z,86.22
2022-08-05T16:35:27.784Z,89.32
2022-08-05T16:38:15.486Z,88.33
2022-08-05T16:40:52.128Z,89.57
2022-08-05T16:43:25.060Z,92.18
2022-08-05T16:46:05.783Z,93.94
2022-08-05T16:48:39.437Z,95.24
2022-08-05T16:51:08.969Z,98.56
2022-08-05T16:54:02.562Z,98.10
2022-08-05T16:56:29.848Z,99.75
2022-08-05T16:58:57.879Z,100.00
2022-08-05T17:01:24.770Z,100.00
2022-08-05T17:03:52.125Z,100.00
2022-08-05T17:06:19.870Z,100.00
2022-08-05T17:08:53.478Z,100.00
2022-08-05T17:11:23.874Z,100.00
2022-08-05T17:14:05.361Z,100.00
2022-08-05T17:16:37.905Z,100.00
2022-08-05T17:19:07.093Z,100.00
2022-08-05T17:21:36.418Z,100.00
2022-08-05T17:24:19.443Z,96.79
2022-08-05T17:26:56.504Z,82.76
2022-08-05T17:29:33.302Z,80.79
2022-08-05T17:32:11.502Z,78.18
2022-08-05T17:34:43.694Z,77.44
2022-08-05T17:37:37.704Z,79.03
2022-08-05T17:39:57.415Z,82.84
2022-08-05T17:42:32.014Z,89.52
2022-08-05T17:45:18.123Z,91.93
2022-08-05T17:47:53.020Z,96.55
2022-08-05T17:50:29.689Z,99.88
2022-08-05T17:53:02.633Z,100.00
2022-08-05T17:55:37.912Z,100.00
2022-08-05T17:58:12.237Z,100.00
2022-08-05T18:00:47.612Z,100.00
2022-08-05T18:03:59.393Z,100.00
2022-08-05T18:06:11.715Z,100.00
2022-08-05T18:08:52.141Z,97.93
2022-08-05T18:11:24.053Z,97.22
2022-08-05T18:14:04.179Z,94.49
2022-08-05T18:16:32.685Z,92.75
2022-08-05T18:18:59.420Z,90.99
2022-08-05T18:22:07.581Z,90.25
2022-08-05T18:24:12.899Z,90.01
2022-08-05T18:26:41.276Z,89.73
2022-08-05T18:29:10.572Z,89.43
2022-08-05T18:31:37.244Z,89.88
2022-08-05T18:34:12.268Z,89.67
2022-08-05T18:36:41.140Z,89.10
2022-08-05T18:39:22.349Z,89.87
2022-08-05T18:42:04.734Z,90.02
2022-08-05T18:44:49.202Z,91.34
2022-08-05T18:47:22.748Z,91.47
2022-08-05T18:50:12.054Z,93.45
2022-08-05T18:52:41.762Z,95.09
2022-08-05T18:55:19.291Z,97.19
2022-08-05T18:57:53.492Z,99.39
2022-08-05T19:00:28.714Z,99.94
2022-08-05T19:03:03.570Z,100.00
2022-08-05T19:06:12.801Z,100.00
2022-08-05T19:08:19.441Z,100.00
2022-08-05T19:10:50.221Z,100.00
2022-08-05T19:13:17.460Z,100.00
2022-08-05T19:16:00.064Z,100.00
2022-08-05T19:18:30.701Z,100.00
2022-08-05T19:20:59.396Z,100.00
2022-08-05T19:24:06.757Z,100.00
2022-08-05T19:26:14.106Z,100.00
2022-08-05T19:28:44.536Z,100.00
2022-08-05T19:31:17.688Z,100.00
2022-08-05T19:33:55.678Z,100.00
2022-08-05T19:36:25.881Z,100.00
2022-08-05T19:39:00.602Z,100.00
2022-08-05T19:42:05.330Z,100.00
2022-08-05T19:44:17.270Z,100.00
2022-08-05T19:46:45.956Z,100.00
2022-08-05T19:49:17.062Z,100.00
2022-08-05T19:52:08.924Z,100.00
2022-08-05T19:54:32.984Z,100.00
2022-08-05T19:57:06.513Z,100.00
2022-08-05T19:59:55.306Z,100.00
2022-08-05T20:02:23.106Z,100.00
2022-08-05T20:04:50.190Z,100.00
2022-08-05T20:07:46.662Z,99.70
2022-08-05T20:10:13.468Z,99.47
2022-08-05T20:12:48.284Z,99.05
2022-08-05T20:15:48.516Z,97.90
2022-08-05T20:18:10.652Z,97.05
2022-08-05T20:21:08.983Z,97.75
2022-08-05T20:23:50.786Z,98.80
2022-08-05T20:26:21.972Z,99.44
2022-08-05T20:28:55.900Z,100.00
2022-08-05T20:31:28.748Z,100.00
2022-08-05T20:34:10.601Z,100.00
2022-08-05T20:36:39.018Z,98.20
2022-08-05T20:39:19.113Z,94.00
2022-08-05T20:41:49.144Z,90.92
2022-08-05T20:44:30.385Z,89.90
2022-08-05T20:46:59.384Z,90.37
2022-08-05T20:49:27.196Z,90.48
2022-08-05T20:51:58.144Z,89.71
2022-08-05T20:54:59.504Z,89.67
2022-08-05T20:57:42.243Z,91.23
2022-08-05T21:00:21.094Z,91.82
2022-08-05T21:03:00.186Z,92.24
2022-08-05T21:05:54.615Z,90.58
2022-08-05T21:08:26.522Z,88.94
2022-08-05T21:11:00.287Z,88.97
2022-08-05T21:13:55.994Z,86.44
2022-08-05T21:16:19.173Z,85.69
2022-08-05T21:18:46.114Z,85.70
2022-08-05T21:21:12.995Z,85.43
2022-08-05T21:23:39.803Z,85.24
2022-08-05T21:26:14.365Z,86.39
2022-08-05T21:28:47.940Z,85.91
2022-08-05T21:31:26.191Z,86.97
2022-08-05T21:34:07.679Z,87.18
2022-08-05T21:36:34.393Z,87.08
2022-08-05T21:39:01.217Z,87.57
2022-08-05T21:41:32.936Z,87.57
2022-08-05T21:44:04.487Z,87.55
2022-08-05T21:46:34.230Z,88.15
2022-08-05T21:49:07.304Z,88.03
2022-08-05T21:52:27.113Z,87.28
2022-08-05T21:54:27.693Z,86.54
2022-08-05T21:57:29.242Z,85.46
2022-08-05T22:00:02.117Z,84.67
2022-08-05T22:02:28.301Z,84.13
2022-08-05T22:04:58.152Z,84.61
2022-08-05T22:07:40.469Z,85.11
2022-08-05T22:10:14.360Z,85.11
2022-08-05T22:12:44.891Z,83.39
2022-08-05T22:16:01.097Z,84.03
2022-08-05T22:18:05.706Z,84.40
2022-08-05T22:20:32.668Z,83.87
2022-08-05T22:23:21.532Z,83.93
2022-08-05T22:26:10.711Z,83.62
2022-08-05T22:28:38.760Z,83.97
2022-08-05T22:31:06.289Z,83.58
2022-08-05T22:33:56.326Z,83.27
2022-08-05T22:36:19.787Z,82.93
2022-08-05T22:38:52.114Z,82.03
2022-08-05T22:42:05.462Z,80.90
2022-08-05T22:44:08.495Z,81.10
2022-08-05T22:46:39.714Z,81.08
2022-08-05T22:49:12.207Z,81.78
2022-08-05T22:52:06.136Z,82.14
2022-08-05T22:54:36.205Z,82.93
2022-08-05T22:57:06.947Z,82.56
2022-08-05T22:59:45.331Z,82.29
2022-08-05T23:02:18.316Z,81.54
2022-08-05T23:04:52.039Z,81.89
2022-08-05T23:07:21.993Z,82.96
2022-08-05T23:09:58.376Z,83.76
2022-08-05T23:12:32.894Z,83.49
2022-08-05T23:15:08.733Z,82.70
2022-08-05T23:17:59.711Z,81.88
2022-08-05T23:20:24.411Z,81.40
2022-08-05T23:22:55.610Z,81.31
2022-08-05T23:25:51.905Z,80.58
2022-08-05T23:28:10.270Z,81.38
2022-08-05T23:30:39.948Z,81.18
2022-08-05T23:33:16.335Z,80.52
2022-08-05T23:35:50.459Z,80.23
2022-08-05T23:38:17.363Z,79.26
2022-08-05T23:40:49.920Z,79.88
2022-08-05T23:43:25.843Z,80.24
2022-08-05T23:46:20.997Z,81.00
2022-08-05T23:49:01.228Z,80.90
2022-08-05T23:51:54.343Z,81.55
2022-08-05T23:54:30.234Z,81.39
2022-08-05T23:57:03.939Z,81.63
